createdAt,value
2018-12-16T00:00:50.743Z,20.47
2018-12-16T00:03:19.823Z,21.93
2018-12-16T00:05:48.956Z,21.60
2018-12-16T00:08:17.996Z,22.17
2018-12-16T00:10:47.045Z,20.07
2018-12-16T00:13:16.178Z,23.00
2018-12-16T00:15:45.253Z,22.93
2018-12-16T00:18:14.300Z,21.33
2018-12-16T00:20:43.375Z,22.53
2018-12-16T00:23:12.840Z,21.97
2018-12-16T00:25:41.918Z,22.33
2018-12-16T00:28:10.961Z,20.80
2018-12-16T00:30:40.042Z,21.90
2018-12-16T00:33:09.092Z,22.20
2018-12-16T00:35:38.168Z,20.33
2018-12-16T00:38:07.219Z,21.30
2018-12-16T00:40:36.262Z,21.90
2018-12-16T00:43:05.426Z,21.20
2018-12-16T00:45:34.560Z,21.90
2018-12-16T00:48:03.631Z,20.83
2018-12-16T00:50:32.700Z,22.10
2018-12-16T00:53:05.306Z,20.60
2018-12-16T00:55:34.365Z,21.20
2018-12-16T00:58:03.529Z,20.93
2018-12-16T01:00:32.760Z,19.87
2018-12-16T01:03:01.864Z,18.30
2018-12-16T01:05:30.896Z,18.13
2018-12-16T01:07:59.958Z,19.90
2018-12-16T01:10:29.023Z,18.90
2018-12-16T01:12:58.105Z,20.87
2018-12-16T01:15:27.161Z,20.97
2018-12-16T01:17:56.279Z,21.57
2018-12-16T01:20:25.360Z,21.70
2018-12-16T01:22:54.397Z,20.73
2018-12-16T01:25:23.473Z,21.87
2018-12-16T01:27:52.559Z,22.40
2018-12-16T01:30:21.714Z,20.73
2018-12-16T01:32:50.792Z,22.50
2018-12-16T01:35:19.912Z,23.83
2018-12-16T01:37:48.966Z,24.20
2018-12-16T01:40:18.071Z,24.80
2018-12-16T01:42:47.106Z,24.00
2018-12-16T01:45:16.177Z,24.27
2018-12-16T01:47:45.225Z,24.40
2018-12-16T01:50:14.337Z,24.23
2018-12-16T01:52:49.921Z,24.07
2018-12-16T01:55:14.494Z,23.87
2018-12-16T01:57:43.566Z,24.77
2018-12-16T02:00:12.809Z,23.47
2018-12-16T02:02:41.906Z,23.40
2018-12-16T02:05:11.010Z,25.47
2018-12-16T02:07:40.082Z,21.10
2018-12-16T02:10:09.264Z,23.70
2018-12-16T02:12:38.331Z,23.43
2018-12-16T02:15:07.490Z,23.57
2018-12-16T02:17:36.554Z,26.07
2018-12-16T02:20:06.736Z,23.47
2018-12-16T02:22:35.805Z,21.70
2018-12-16T02:25:07.233Z,21.60
2018-12-16T02:27:36.310Z,24.27
2018-12-16T02:30:05.688Z,22.40
2018-12-16T02:32:34.760Z,23.03
2018-12-16T02:35:04.925Z,22.60
2018-12-16T02:37:34.001Z,23.20
2018-12-16T02:40:03.173Z,24.20
2018-12-16T02:42:32.294Z,22.57
2018-12-16T02:45:01.365Z,23.77
2018-12-16T02:47:30.461Z,21.30
2018-12-16T02:49:59.541Z,23.90
2018-12-16T02:52:28.578Z,23.17
2018-12-16T02:54:57.676Z,25.03
2018-12-16T02:57:26.719Z,23.47
2018-12-16T02:59:55.778Z,22.93
2018-12-16T03:02:24.812Z,23.57
2018-12-16T03:04:53.894Z,22.33
2018-12-16T03:07:22.936Z,22.93
2018-12-16T03:09:52.032Z,23.17
2018-12-16T03:12:21.089Z,22.23
2018-12-16T03:14:50.167Z,23.00
2018-12-16T03:17:19.232Z,21.13
2018-12-16T03:19:48.272Z,21.33
2018-12-16T03:22:17.346Z,18.17
2018-12-16T03:24:46.393Z,17.37
2018-12-16T03:27:15.525Z,18.77
2018-12-16T03:29:44.613Z,16.97
2018-12-16T03:32:13.743Z,17.43
2018-12-16T03:34:42.798Z,16.60
2018-12-16T03:37:11.867Z,18.07
2018-12-16T03:39:40.907Z,16.83
2018-12-16T03:42:09.970Z,15.30
2018-12-16T03:44:39.001Z,15.53
2018-12-16T03:47:08.166Z,17.17
2018-12-16T03:49:37.261Z,14.07
2018-12-16T03:52:07.351Z,14.97
2018-12-16T03:54:36.392Z,15.20
2018-12-16T03:57:05.450Z,15.10
2018-12-16T03:59:34.490Z,14.13
2018-12-16T04:02:03.582Z,14.77
2018-12-16T04:04:32.891Z,17.10
2018-12-16T04:07:01.954Z,15.40
2018-12-16T04:09:30.996Z,13.80
2018-12-16T04:12:00.062Z,14.40
2018-12-16T04:14:29.093Z,15.23
2018-12-16T04:16:58.160Z,15.03
2018-12-16T04:19:27.193Z,15.57
2018-12-16T04:21:56.269Z,14.37
2018-12-16T04:24:25.390Z,13.90
2018-12-16T04:26:54.526Z,16.00
2018-12-16T04:29:23.589Z,14.70
2018-12-16T04:31:52.649Z,15.67
2018-12-16T04:34:21.686Z,15.33
2018-12-16T04:36:50.758Z,15.93
2018-12-16T04:39:19.804Z,16.50
2018-12-16T04:41:48.859Z,16.10
2018-12-16T04:44:17.926Z,16.97
2018-12-16T04:46:46.960Z,16.80
2018-12-16T04:49:16.027Z,15.90
2018-12-16T04:51:45.107Z,16.40
2018-12-16T04:54:14.142Z,16.30
2018-12-16T04:56:43.209Z,16.67
2018-12-16T04:59:12.268Z,17.33
2018-12-16T05:01:41.313Z,16.60
2018-12-16T05:04:10.381Z,16.10
2018-12-16T05:06:39.521Z,15.67
2018-12-16T05:09:08.570Z,17.40
2018-12-16T05:11:37.652Z,17.37
2018-12-16T05:14:06.738Z,16.23
2018-12-16T05:16:35.784Z,17.57
2018-12-16T05:19:04.832Z,18.50
2018-12-16T05:21:33.907Z,17.63
2018-12-16T05:24:02.966Z,16.87
2018-12-16T05:26:32.028Z,18.30
2018-12-16T05:29:01.065Z,18.60
2018-12-16T05:31:30.138Z,16.67
2018-12-16T05:33:59.252Z,16.20
2018-12-16T05:36:28.426Z,15.50
2018-12-16T05:38:57.470Z,16.93
2018-12-16T05:41:26.517Z,16.33
2018-12-16T05:43:55.659Z,15.53
2018-12-16T05:46:24.735Z,16.00
2018-12-16T05:48:53.806Z,15.50
2018-12-16T05:51:22.863Z,15.27
2018-12-16T05:53:51.913Z,15.50
2018-12-16T05:56:20.946Z,14.17
2018-12-16T05:58:50.012Z,13.70
2018-12-16T06:01:19.068Z,14.90
2018-12-16T06:03:48.137Z,15.90
2018-12-16T06:06:17.207Z,15.27
2018-12-16T06:08:46.249Z,17.17
2018-12-16T06:11:15.311Z,16.00
2018-12-16T06:13:44.390Z,14.97
2018-12-16T06:16:13.433Z,13.17
2018-12-16T06:18:42.506Z,14.00
2018-12-16T06:21:11.566Z,13.70
2018-12-16T06:23:40.628Z,15.23
2018-12-16T06:26:09.670Z,14.17
2018-12-16T06:28:38.735Z,15.27
2018-12-16T06:31:07.808Z,13.83
2018-12-16T06:33:36.911Z,15.07
2018-12-16T06:36:05.973Z,13.63
2018-12-16T06:38:35.015Z,12.30
2018-12-16T06:41:04.098Z,12.63
2018-12-16T06:43:33.157Z,14.27
2018-12-16T06:46:02.251Z,14.77
2018-12-16T06:48:31.284Z,13.40
2018-12-16T06:51:00.329Z,13.33
2018-12-16T06:53:29.395Z,13.90
2018-12-16T06:55:58.425Z,13.80
2018-12-16T06:58:27.630Z,12.63
2018-12-16T07:00:56.663Z,19.77
2018-12-16T07:03:25.734Z,17.60
2018-12-16T07:05:54.802Z,13.80
2018-12-16T07:08:23.864Z,13.37
2018-12-16T07:10:52.943Z,13.33
2018-12-16T07:13:21.988Z,13.60
2018-12-16T07:15:51.063Z,13.47
2018-12-16T07:18:20.147Z,15.33
2018-12-16T07:20:49.351Z,14.97
2018-12-16T07:23:18.413Z,14.97
2018-12-16T07:25:47.496Z,13.93
2018-12-16T07:28:16.766Z,14.87
2018-12-16T07:30:45.998Z,15.17
2018-12-16T07:33:17.004Z,13.60
2018-12-16T07:35:46.145Z,15.73
2018-12-16T07:38:15.257Z,15.23
2018-12-16T07:40:44.454Z,15.03
2018-12-16T07:43:13.493Z,15.70
2018-12-16T07:45:42.638Z,17.03
2018-12-16T07:48:11.701Z,14.83
2018-12-16T07:50:40.940Z,15.30
2018-12-16T07:53:10.024Z,13.67
2018-12-16T07:55:39.242Z,13.90
2018-12-16T07:58:08.284Z,13.53
2018-12-16T08:00:38.256Z,13.13
2018-12-16T08:03:07.637Z,13.37
2018-12-16T08:05:36.738Z,12.70
2018-12-16T08:08:05.787Z,13.13
2018-12-16T08:10:34.927Z,13.47
2018-12-16T08:13:04.015Z,13.90
2018-12-16T08:15:33.088Z,13.20
2018-12-16T08:18:02.141Z,13.30
2018-12-16T08:20:31.195Z,13.87
2018-12-16T08:23:00.254Z,14.03
2018-12-16T08:25:29.348Z,14.30
2018-12-16T08:27:58.418Z,13.40
2018-12-16T08:30:27.569Z,14.40
2018-12-16T08:32:56.613Z,14.00
2018-12-16T08:35:25.655Z,14.20
2018-12-16T08:37:54.730Z,14.03
2018-12-16T08:40:24.413Z,14.37
2018-12-16T08:42:53.481Z,14.50
2018-12-16T08:45:22.545Z,15.03
2018-12-16T08:47:51.595Z,14.53
2018-12-16T08:50:20.662Z,16.23
2018-12-16T08:52:49.739Z,14.93
2018-12-16T08:55:18.797Z,15.50
2018-12-16T08:57:47.861Z,15.40
2018-12-16T09:00:16.918Z,15.00
2018-12-16T09:02:46.006Z,14.73
2018-12-16T09:05:15.099Z,15.30
2018-12-16T09:07:45.061Z,15.70
2018-12-16T09:10:14.205Z,14.90
2018-12-16T09:12:43.270Z,16.83
2018-12-16T09:15:14.193Z,15.87
2018-12-16T09:17:43.370Z,17.07
2018-12-16T09:20:12.399Z,20.33
2018-12-16T09:22:41.463Z,17.20
2018-12-16T09:25:10.609Z,16.80
2018-12-16T09:27:39.733Z,17.77
2018-12-16T09:30:10.668Z,17.33
2018-12-16T09:32:39.743Z,17.10
2018-12-16T09:35:08.857Z,19.60
2018-12-16T09:37:37.908Z,18.27
2018-12-16T09:40:07.405Z,19.60
2018-12-16T09:42:36.457Z,18.13
2018-12-16T09:45:06.417Z,18.97
2018-12-16T09:47:35.872Z,20.10
2018-12-16T09:50:05.434Z,18.00
2018-12-16T09:52:34.526Z,20.10
2018-12-16T09:55:04.510Z,21.53
2018-12-16T09:57:33.533Z,21.00
2018-12-16T10:00:02.621Z,20.00
2018-12-16T10:02:31.673Z,21.10
2018-12-16T10:05:00.742Z,19.90
2018-12-16T10:07:29.796Z,20.53
2018-12-16T10:09:58.841Z,20.67
2018-12-16T10:12:27.926Z,21.17
2018-12-16T10:14:57.114Z,20.10
2018-12-16T10:17:26.152Z,21.97
2018-12-16T10:19:55.206Z,20.70
2018-12-16T10:22:24.244Z,22.27
2018-12-16T10:24:53.314Z,23.87
2018-12-16T10:27:22.381Z,27.53
2018-12-16T10:29:51.608Z,23.17
2018-12-16T10:32:20.665Z,20.97
2018-12-16T10:34:49.689Z,22.10
2018-12-16T10:37:18.814Z,20.67
2018-12-16T10:39:47.897Z,21.57
2018-12-16T10:42:16.982Z,20.40
2018-12-16T10:44:46.015Z,20.53
2018-12-16T10:47:15.045Z,17.37
2018-12-16T10:49:44.099Z,18.90
2018-12-16T10:52:13.146Z,21.80
2018-12-16T10:54:42.209Z,19.50
2018-12-16T10:57:11.233Z,19.07
2018-12-16T10:59:40.266Z,18.07
2018-12-16T11:02:09.316Z,20.20
2018-12-16T11:04:38.348Z,19.30
2018-12-16T11:07:07.412Z,35.70
2018-12-16T11:09:36.430Z,21.77
2018-12-16T11:12:05.558Z,31.70
2018-12-16T11:14:34.589Z,29.80
2018-12-16T11:17:03.728Z,21.83
2018-12-16T11:19:32.774Z,17.53
2018-12-16T11:22:01.911Z,16.80
2018-12-16T11:24:31.193Z,17.53
2018-12-16T11:27:02.157Z,17.50
2018-12-16T11:29:31.277Z,16.13
2018-12-16T11:32:00.318Z,17.20
2018-12-16T11:34:30.289Z,14.80
2018-12-16T11:36:59.333Z,12.40
2018-12-16T11:39:28.403Z,14.10
2018-12-16T11:41:57.417Z,14.77
2018-12-16T11:44:27.337Z,14.70
2018-12-16T11:46:56.517Z,14.03
2018-12-16T11:49:25.590Z,14.77
2018-12-16T11:51:54.720Z,15.60
2018-12-16T11:54:23.755Z,15.10
2018-12-16T11:56:52.816Z,14.63
2018-12-16T11:59:21.860Z,15.50
2018-12-16T12:01:50.922Z,13.83
2018-12-16T12:04:19.979Z,15.43
2018-12-16T12:06:49.016Z,12.80
2018-12-16T12:09:18.070Z,12.23
2018-12-16T12:11:47.117Z,11.97
2018-12-16T12:14:16.168Z,11.73
2018-12-16T12:16:45.246Z,11.97
2018-12-16T12:19:14.280Z,12.53
2018-12-16T12:21:43.336Z,11.30
2018-12-16T12:24:12.404Z,12.90
2018-12-16T12:26:41.445Z,12.83
2018-12-16T12:29:10.505Z,11.77
2018-12-16T12:31:39.522Z,11.83
2018-12-16T12:34:08.588Z,13.90
2018-12-16T12:36:37.608Z,12.97
2018-12-16T12:39:06.769Z,12.17
2018-12-16T12:41:35.821Z,13.30
2018-12-16T12:44:04.914Z,13.23
2018-12-16T12:46:33.972Z,14.20
2018-12-16T12:49:03.001Z,15.10
2018-12-16T12:51:32.078Z,13.53
2018-12-16T12:54:01.150Z,13.77
2018-12-16T12:56:30.180Z,14.27
2018-12-16T12:58:59.214Z,13.30
2018-12-16T13:01:28.261Z,14.00
2018-12-16T13:03:57.357Z,13.63
2018-12-16T13:06:26.390Z,14.13
2018-12-16T13:08:55.451Z,13.63
2018-12-16T13:11:24.515Z,16.20
2018-12-16T13:13:53.659Z,14.43
2018-12-16T13:16:22.768Z,15.63
2018-12-16T13:18:51.824Z,16.67
2018-12-16T13:21:20.856Z,14.33
2018-12-16T13:23:49.925Z,15.37
2018-12-16T13:26:19.110Z,15.23
2018-12-16T13:28:48.169Z,12.80
2018-12-16T13:31:17.237Z,15.23
2018-12-16T13:33:46.266Z,17.70
2018-12-16T13:36:15.325Z,20.87
2018-12-16T13:38:44.799Z,18.50
2018-12-16T13:41:14.902Z,18.80
2018-12-16T13:43:43.942Z,18.43
2018-12-16T13:46:13.825Z,17.80
2018-12-16T13:48:42.853Z,20.57
2018-12-16T13:51:11.917Z,19.67
2018-12-16T13:53:40.941Z,26.90
2018-12-16T13:56:09.978Z,23.80
2018-12-16T13:58:39.015Z,21.60
2018-12-16T14:01:08.749Z,20.13
2018-12-16T14:03:37.780Z,18.10
2018-12-16T14:06:06.824Z,18.20
2018-12-16T14:08:36.243Z,19.40
2018-12-16T14:11:05.412Z,22.63
2018-12-16T14:13:34.545Z,21.00
2018-12-16T14:16:03.799Z,22.97
2018-12-16T14:18:32.840Z,23.30
2018-12-16T14:21:01.912Z,23.70
2018-12-16T14:23:30.948Z,23.10
2018-12-16T14:26:00.004Z,25.67
2018-12-16T14:28:29.068Z,24.87
2018-12-16T14:30:58.101Z,37.20
2018-12-16T14:33:27.213Z,31.93
2018-12-16T14:35:56.280Z,29.60
2018-12-16T14:38:25.574Z,27.30
2018-12-16T14:40:54.637Z,29.50
2018-12-16T14:43:23.661Z,25.87
2018-12-16T14:45:52.695Z,25.83
2018-12-16T14:48:21.764Z,27.07
2018-12-16T14:50:50.798Z,25.10
2018-12-16T14:53:20.477Z,29.20
2018-12-16T14:55:55.227Z,28.80
2018-12-16T14:58:20.546Z,28.80
2018-12-16T15:00:49.603Z,26.97
2018-12-16T15:03:18.633Z,26.77
2018-12-16T15:05:47.705Z,27.40
2018-12-16T15:08:16.727Z,26.60
2018-12-16T15:10:45.796Z,26.83
2018-12-16T15:13:14.855Z,23.70
2018-12-16T15:15:43.915Z,30.93
2018-12-16T15:18:12.950Z,29.07
2018-12-16T15:20:42.016Z,28.33
2018-12-16T15:23:11.089Z,49.43
2018-12-16T15:25:40.136Z,33.73
2018-12-16T15:28:09.181Z,27.80
2018-12-16T15:30:38.319Z,28.23
2018-12-16T15:33:07.364Z,28.17
2018-12-16T15:35:36.427Z,29.33
2018-12-16T15:38:05.493Z,28.33
2018-12-16T15:40:34.524Z,25.73
2018-12-16T15:43:03.630Z,26.33
2018-12-16T15:45:32.734Z,26.40
2018-12-16T15:48:01.850Z,26.40
2018-12-16T15:50:30.924Z,30.70
2018-12-16T15:53:00.299Z,41.10
2018-12-16T15:55:29.378Z,30.40
2018-12-16T15:57:58.414Z,28.50
2018-12-16T16:00:27.498Z,27.60
2018-12-16T16:02:56.536Z,29.90
2018-12-16T16:05:25.606Z,26.87
2018-12-16T16:07:54.747Z,28.37
2018-12-16T16:10:23.838Z,28.33
2018-12-16T16:12:52.910Z,28.30
2018-12-16T16:15:21.959Z,28.93
2018-12-16T16:17:51.051Z,28.40
2018-12-16T16:20:20.098Z,29.97
2018-12-16T16:22:49.188Z,30.30
2018-12-16T16:25:20.361Z,30.37
2018-12-16T16:27:49.406Z,49.90
2018-12-16T16:30:18.444Z,31.40
2018-12-16T16:32:47.505Z,30.17
2018-12-16T16:35:16.557Z,27.77
2018-12-16T16:37:45.776Z,28.67
2018-12-16T16:40:14.850Z,32.20
2018-12-16T16:42:43.885Z,30.87
2018-12-16T16:45:13.004Z,31.50
2018-12-16T16:47:42.074Z,30.10
2018-12-16T16:50:11.181Z,27.70
2018-12-16T16:52:40.246Z,29.67
2018-12-16T16:55:09.315Z,28.10
2018-12-16T16:57:38.398Z,29.80
2018-12-16T17:00:08.692Z,30.50
2018-12-16T17:02:37.733Z,30.67
2018-12-16T17:05:06.949Z,30.20
2018-12-16T17:07:36.020Z,28.77
2018-12-16T17:10:07.010Z,29.70
2018-12-16T17:12:36.058Z,28.77
2018-12-16T17:15:05.988Z,31.67
2018-12-16T17:17:35.021Z,33.53
2018-12-16T17:20:05.290Z,31.43
2018-12-16T17:22:34.331Z,27.50
2018-12-16T17:25:03.521Z,48.30
2018-12-16T17:27:32.597Z,52.50
2018-12-16T17:30:02.291Z,33.47
2018-12-16T17:32:31.553Z,29.23
2018-12-16T17:35:00.661Z,29.87
2018-12-16T17:37:29.701Z,28.17
2018-12-16T17:39:58.736Z,29.43
2018-12-16T17:42:27.810Z,27.67
2018-12-16T17:44:56.853Z,32.40
2018-12-16T17:47:25.922Z,31.87
2018-12-16T17:49:55.000Z,30.60
2018-12-16T17:52:24.147Z,31.83
2018-12-16T17:54:53.172Z,30.73
2018-12-16T17:57:22.253Z,31.93
2018-12-16T17:59:51.300Z,29.17
2018-12-16T18:02:20.469Z,29.50
2018-12-16T18:04:49.552Z,31.30
2018-12-16T18:07:18.614Z,37.67
2018-12-16T18:09:47.696Z,69.57
2018-12-16T18:12:16.741Z,46.37
2018-12-16T18:14:45.789Z,41.80
2018-12-16T18:17:14.842Z,50.53
2018-12-16T18:19:43.910Z,53.87
2018-12-16T18:22:14.133Z,74.10
2018-12-16T18:24:43.422Z,55.90
2018-12-16T18:27:12.493Z,40.37
2018-12-16T18:29:41.537Z,31.53
2018-12-16T18:32:10.604Z,30.40
2018-12-16T18:34:39.686Z,30.63
2018-12-16T18:37:08.717Z,32.03
2018-12-16T18:39:37.785Z,27.53
2018-12-16T18:42:07.009Z,31.40
2018-12-16T18:44:36.089Z,29.03
2018-12-16T18:47:06.918Z,30.90
2018-12-16T18:49:35.986Z,31.47
2018-12-16T18:52:05.036Z,29.53
2018-12-16T18:54:35.019Z,28.43
2018-12-16T18:57:07.291Z,28.63
2018-12-16T18:59:35.214Z,30.17
2018-12-16T19:02:04.345Z,30.97
2018-12-16T19:04:35.277Z,32.33
2018-12-16T19:07:04.472Z,30.43
2018-12-16T19:09:33.588Z,27.77
2018-12-16T19:12:02.702Z,28.43
2018-12-16T19:14:32.275Z,29.73
2018-12-16T19:17:01.381Z,30.07
2018-12-16T19:19:30.439Z,27.80
2018-12-16T19:21:59.485Z,30.03
2018-12-16T19:24:28.559Z,31.83
2018-12-16T19:26:58.341Z,31.83
2018-12-16T19:29:27.961Z,35.43
2018-12-16T19:31:57.038Z,32.60
2018-12-16T19:34:26.077Z,34.37
2018-12-16T19:36:55.150Z,34.30
2018-12-16T19:39:24.218Z,34.77
2018-12-16T19:41:53.269Z,34.67
2018-12-16T19:44:22.339Z,34.07
2018-12-16T19:46:51.420Z,35.70
2018-12-16T19:49:20.511Z,34.60
2018-12-16T19:51:49.566Z,27.40
2018-12-16T19:54:19.084Z,26.73
2018-12-16T19:56:48.154Z,23.57
2018-12-16T19:59:17.245Z,24.50
2018-12-16T20:01:46.299Z,25.93
2018-12-16T20:04:17.413Z,25.97
2018-12-16T20:06:46.592Z,25.30
2018-12-16T20:09:15.892Z,25.87
2018-12-16T20:11:44.963Z,25.17
2018-12-16T20:14:14.058Z,28.13
2018-12-16T20:16:43.296Z,27.97
2018-12-16T20:19:12.355Z,33.67
2018-12-16T20:21:41.535Z,57.00
2018-12-16T20:24:10.652Z,40.37
2018-12-16T20:26:39.997Z,30.97
2018-12-16T20:29:09.411Z,30.00
2018-12-16T20:31:38.775Z,29.50
2018-12-16T20:34:07.857Z,25.90
2018-12-16T20:36:36.904Z,24.83
2018-12-16T20:39:06.995Z,26.23
2018-12-16T20:41:36.314Z,26.47
2018-12-16T20:44:05.414Z,27.17
2018-12-16T20:46:34.494Z,29.30
2018-12-16T20:49:03.826Z,25.97
2018-12-16T20:51:32.889Z,23.57
2018-12-16T20:54:01.984Z,24.33
2018-12-16T20:56:31.022Z,25.10
2018-12-16T20:59:00.175Z,26.03
2018-12-16T21:01:29.246Z,24.87
2018-12-16T21:03:58.325Z,26.77
2018-12-16T21:06:27.374Z,23.60
2018-12-16T21:08:58.432Z,27.07
2018-12-16T21:11:32.970Z,29.17
2018-12-16T21:14:07.602Z,31.50
2018-12-16T21:16:42.140Z,30.70
2018-12-16T21:19:15.428Z,31.67
2018-12-16T21:21:44.478Z,30.57
2018-12-16T21:24:13.626Z,30.33
2018-12-16T21:26:43.266Z,31.80
2018-12-16T21:29:12.356Z,30.70
2018-12-16T21:31:41.445Z,28.93
2018-12-16T21:34:10.486Z,30.40
2018-12-16T21:36:39.532Z,31.57
2018-12-16T21:39:08.594Z,30.60
2018-12-16T21:41:37.677Z,31.43
2018-12-16T21:44:06.713Z,30.07
2018-12-16T21:46:35.790Z,31.27
2018-12-16T21:49:04.925Z,29.27
2018-12-16T21:51:33.998Z,30.67
2018-12-16T21:54:03.078Z,30.03
2018-12-16T21:56:32.130Z,30.70
2018-12-16T21:59:01.213Z,30.00
2018-12-16T22:01:30.949Z,31.00
2018-12-16T22:04:00.026Z,32.43
2018-12-16T22:06:30.100Z,32.20
2018-12-16T22:08:59.164Z,32.60
2018-12-16T22:11:28.219Z,37.07
2018-12-16T22:13:57.285Z,43.93
2018-12-16T22:16:26.360Z,48.40
2018-12-16T22:18:55.410Z,54.63
2018-12-16T22:21:24.487Z,56.60
2018-12-16T22:23:53.529Z,50.60
2018-12-16T22:26:22.668Z,42.83
2018-12-16T22:28:51.786Z,42.00
2018-12-16T22:31:20.893Z,34.93
2018-12-16T22:33:50.028Z,34.50
2018-12-16T22:36:19.100Z,31.90
2018-12-16T22:38:48.430Z,28.50
2018-12-16T22:41:17.491Z,29.07
2018-12-16T22:43:47.001Z,30.90
2018-12-16T22:46:16.433Z,31.83
2018-12-16T22:48:45.504Z,31.00
2018-12-16T22:51:14.589Z,31.80
2018-12-16T22:53:43.620Z,30.50
2018-12-16T22:56:12.690Z,31.80
2018-12-16T22:58:41.733Z,29.83
2018-12-16T23:01:16.961Z,31.90
2018-12-16T23:03:46.001Z,33.03
2018-12-16T23:06:15.071Z,33.60
2018-12-16T23:08:44.129Z,35.23
2018-12-16T23:11:13.241Z,35.57
2018-12-16T23:13:42.284Z,36.37
2018-12-16T23:16:11.322Z,37.60
2018-12-16T23:18:40.860Z,34.20
2018-12-16T23:21:11.212Z,32.80
2018-12-16T23:23:40.455Z,30.70
2018-12-16T23:26:09.525Z,30.87
2018-12-16T23:28:38.575Z,28.87
2018-12-16T23:31:07.712Z,29.07
2018-12-16T23:33:36.758Z,29.10
2018-12-16T23:36:05.885Z,30.67
2018-12-16T23:38:34.945Z,28.27
2018-12-16T23:41:04.073Z,28.50
2018-12-16T23:43:33.115Z,29.37
2018-12-16T23:46:02.193Z,28.43
2018-12-16T23:48:31.230Z,27.87
2018-12-16T23:51:00.270Z,25.57
2018-12-16T23:53:29.336Z,26.60
2018-12-16T23:55:58.372Z,24.03
2018-12-16T23:58:27.449Z,22.90
